createdAt,value
2022-12-11T00:00:03.106Z,24.33
2022-12-11T00:00:34.726Z,24.20
2022-12-11T00:01:14.650Z,24.38
2022-12-11T00:01:46.288Z,23.70
2022-12-11T00:02:18.368Z,24.73
2022-12-11T00:02:50.039Z,25.35
2022-12-11T00:03:21.763Z,25.02
2022-12-11T00:03:53.427Z,23.70
2022-12-11T00:04:25.046Z,22.67
2022-12-11T00:04:56.693Z,21.77
2022-12-11T00:05:28.258Z,25.42
2022-12-11T00:05:59.831Z,24.70
2022-12-11T00:06:31.422Z,23.45
2022-12-11T00:07:03.079Z,25.65
2022-12-11T00:07:34.683Z,23.00
2022-12-11T00:08:06.535Z,23.08
2022-12-11T00:08:38.390Z,23.85
2022-12-11T00:09:09.990Z,24.55
2022-12-11T00:09:41.550Z,24.30
2022-12-11T00:10:13.162Z,26.85
2022-12-11T00:10:49.778Z,25.92
2022-12-11T00:11:22.846Z,26.13
2022-12-11T00:11:54.420Z,22.55
2022-12-11T00:12:26.114Z,21.88
2022-12-11T00:12:57.790Z,24.63
2022-12-11T00:13:29.674Z,25.38
2022-12-11T00:14:01.275Z,23.55
2022-12-11T00:14:33.358Z,23.63
2022-12-11T00:15:05.267Z,26.45
2022-12-11T00:15:38.410Z,25.23
2022-12-11T00:16:10.786Z,24.52
2022-12-11T00:16:42.795Z,27.20
2022-12-11T00:17:14.415Z,24.10
2022-12-11T00:17:46.015Z,26.15
2022-12-11T00:18:17.640Z,23.67
2022-12-11T00:18:49.194Z,24.83
2022-12-11T00:19:20.967Z,23.70
2022-12-11T00:19:52.567Z,26.30
2022-12-11T00:20:24.292Z,24.35
2022-12-11T00:20:55.898Z,21.60
2022-12-11T00:21:27.630Z,23.23
2022-12-11T00:21:59.182Z,23.15
2022-12-11T00:22:31.019Z,23.83
2022-12-11T00:23:04.524Z,25.80
2022-12-11T00:23:36.870Z,22.20
2022-12-11T00:24:08.540Z,24.27
2022-12-11T00:24:40.122Z,22.60
2022-12-11T00:25:11.982Z,22.55
2022-12-11T00:25:47.885Z,23.50
2022-12-11T00:26:19.768Z,25.67
2022-12-11T00:26:51.422Z,21.42
2022-12-11T00:27:23.017Z,24.48
2022-12-11T00:27:54.601Z,21.38
2022-12-11T00:28:26.249Z,22.58
2022-12-11T00:28:57.896Z,23.52
2022-12-11T00:29:29.442Z,22.98
2022-12-11T00:30:01.029Z,23.15
2022-12-11T00:30:32.614Z,20.88
2022-12-11T00:31:09.389Z,24.42
2022-12-11T00:31:42.366Z,23.20
2022-12-11T00:32:14.031Z,23.30
2022-12-11T00:32:45.721Z,20.63
2022-12-11T00:33:17.556Z,21.90
2022-12-11T00:33:50.210Z,22.00
2022-12-11T00:34:21.786Z,22.55
2022-12-11T00:34:53.423Z,21.90
2022-12-11T00:35:24.999Z,20.83
2022-12-11T00:35:56.556Z,22.58
2022-12-11T00:36:28.305Z,20.52
2022-12-11T00:36:59.987Z,19.27
2022-12-11T00:37:31.791Z,20.73
2022-12-11T00:38:03.494Z,21.73
2022-12-11T00:38:35.103Z,21.33
2022-12-11T00:39:06.910Z,24.45
2022-12-11T00:39:39.907Z,20.13
2022-12-11T00:40:11.742Z,22.85
2022-12-11T00:40:44.134Z,20.90
2022-12-11T00:41:16.294Z,20.65
2022-12-11T00:41:47.982Z,21.40
2022-12-11T00:42:19.598Z,23.80
2022-12-11T00:42:51.163Z,22.33
2022-12-11T00:43:22.727Z,22.65
2022-12-11T00:43:54.372Z,20.15
2022-12-11T00:44:25.980Z,24.52
2022-12-11T00:44:57.946Z,21.52
2022-12-11T00:45:29.680Z,21.38
2022-12-11T00:46:02.866Z,21.58
2022-12-11T00:46:34.571Z,20.70
2022-12-11T00:47:06.181Z,22.65
2022-12-11T00:47:37.755Z,22.08
2022-12-11T00:48:10.419Z,20.27
2022-12-11T00:48:42.033Z,21.15
2022-12-11T00:49:13.628Z,20.85
2022-12-11T00:49:49.619Z,22.52
2022-12-11T00:50:21.771Z,19.48
2022-12-11T00:50:53.442Z,22.40
2022-12-11T00:51:26.150Z,22.50
2022-12-11T00:51:57.792Z,22.00
2022-12-11T00:52:29.411Z,25.13
2022-12-11T00:53:01.507Z,19.58
2022-12-11T00:53:33.116Z,21.98
2022-12-11T00:54:04.889Z,24.13
2022-12-11T00:54:36.491Z,20.15
2022-12-11T00:55:08.407Z,20.88
2022-12-11T00:55:41.739Z,21.27
2022-12-11T00:56:19.109Z,21.15
2022-12-11T00:56:50.959Z,21.25
2022-12-11T00:57:22.562Z,21.30
2022-12-11T00:57:54.846Z,20.05
2022-12-11T00:58:26.493Z,21.00
2022-12-11T00:58:58.282Z,20.83
2022-12-11T00:59:29.964Z,19.55
2022-12-11T01:00:01.538Z,20.17
2022-12-11T01:00:33.229Z,20.55
2022-12-11T01:01:13.708Z,21.30
2022-12-11T01:01:45.359Z,22.05
2022-12-11T01:02:16.923Z,21.67
2022-12-11T01:02:49.291Z,22.65
2022-12-11T01:03:20.983Z,20.35
2022-12-11T01:03:53.585Z,22.17
2022-12-11T01:04:25.150Z,19.17
2022-12-11T01:04:56.698Z,21.80
2022-12-11T01:05:28.574Z,20.15
2022-12-11T01:06:00.171Z,20.08
2022-12-11T01:06:31.829Z,18.65
2022-12-11T01:07:03.534Z,19.92
2022-12-11T01:07:35.099Z,18.35
2022-12-11T01:08:06.799Z,22.17
2022-12-11T01:08:38.975Z,18.75
2022-12-11T01:09:29.182Z,19.73
2022-12-11T01:10:19.712Z,20.17
2022-12-11T01:10:51.403Z,18.77
2022-12-11T01:11:23.014Z,18.83
2022-12-11T01:11:54.619Z,19.58
2022-12-11T01:12:28.536Z,23.58
2022-12-11T01:13:03.062Z,20.75
2022-12-11T01:13:34.955Z,18.77
2022-12-11T01:14:07.142Z,19.42
2022-12-11T01:14:38.786Z,21.25
2022-12-11T01:15:12.116Z,21.92
2022-12-11T01:15:45.550Z,20.25
2022-12-11T01:16:17.163Z,19.15
2022-12-11T01:16:48.849Z,18.63
2022-12-11T01:17:20.494Z,20.48
2022-12-11T01:17:52.677Z,19.30
2022-12-11T01:18:24.590Z,18.60
2022-12-11T01:18:57.547Z,20.33
2022-12-11T01:19:29.202Z,19.23
2022-12-11T01:20:00.834Z,19.50
2022-12-11T01:20:33.118Z,20.80
2022-12-11T01:21:10.348Z,18.65
2022-12-11T01:21:41.987Z,20.23
2022-12-11T01:22:13.538Z,19.73
2022-12-11T01:22:45.498Z,18.55
2022-12-11T01:23:17.623Z,19.23
2022-12-11T01:23:50.683Z,20.45
2022-12-11T01:24:22.272Z,20.02
2022-12-11T01:24:53.830Z,17.67
2022-12-11T01:25:27.619Z,17.77
2022-12-11T01:26:08.501Z,18.33
2022-12-11T01:26:40.070Z,21.02
2022-12-11T01:27:11.639Z,19.33
2022-12-11T01:27:43.201Z,19.95
2022-12-11T01:28:14.832Z,18.35
2022-12-11T01:28:49.884Z,17.25
2022-12-11T01:29:21.442Z,19.55
2022-12-11T01:29:53.044Z,19.83
2022-12-11T01:30:25.722Z,17.92
2022-12-11T01:30:57.484Z,19.17
2022-12-11T01:31:29.506Z,20.25
2022-12-11T01:32:01.197Z,17.63
2022-12-11T01:32:33.050Z,18.83
2022-12-11T01:33:04.891Z,19.98
2022-12-11T01:33:36.574Z,19.52
2022-12-11T01:34:08.141Z,19.05
2022-12-11T01:34:39.777Z,21.20
2022-12-11T01:35:12.428Z,17.60
2022-12-11T01:35:44.394Z,18.52
2022-12-11T01:36:19.596Z,19.85
2022-12-11T01:36:52.455Z,18.23
2022-12-11T01:37:24.020Z,18.08
2022-12-11T01:37:56.010Z,20.50
2022-12-11T01:38:27.607Z,17.08
2022-12-11T01:38:59.267Z,16.70
2022-12-11T01:39:30.932Z,17.73
2022-12-11T01:40:04.133Z,18.08
2022-12-11T01:40:35.733Z,18.05
2022-12-11T01:41:08.186Z,19.10
2022-12-11T01:41:39.848Z,18.58
2022-12-11T01:42:17.931Z,16.63
2022-12-11T01:42:49.574Z,18.40
2022-12-11T01:43:21.231Z,16.05
2022-12-11T01:44:06.747Z,16.10
2022-12-11T01:44:38.270Z,17.35
2022-12-11T01:45:22.507Z,17.05
2022-12-11T01:45:55.480Z,17.10
2022-12-11T01:46:28.680Z,18.60
2022-12-11T01:47:00.935Z,15.60
2022-12-11T01:47:32.554Z,15.32
2022-12-11T01:48:08.823Z,15.68
2022-12-11T01:48:42.332Z,17.30
2022-12-11T01:49:17.468Z,17.33
2022-12-11T01:49:49.079Z,17.48
2022-12-11T01:50:20.796Z,18.23
2022-12-11T01:50:56.433Z,14.40
2022-12-11T01:51:31.054Z,16.35
2022-12-11T01:52:09.619Z,15.90
2022-12-11T01:52:42.877Z,16.98
2022-12-11T01:53:19.959Z,14.93
2022-12-11T01:54:06.104Z,14.77
2022-12-11T01:54:37.735Z,17.77
2022-12-11T01:55:10.310Z,17.63
2022-12-11T01:55:42.390Z,16.15
2022-12-11T01:56:14.806Z,18.40
2022-12-11T01:56:48.110Z,18.27
2022-12-11T01:57:19.723Z,16.40
2022-12-11T01:57:52.898Z,17.95
2022-12-11T01:58:28.809Z,16.35
2022-12-11T01:59:07.328Z,16.42
2022-12-11T01:59:41.624Z,15.15
2022-12-11T02:00:13.761Z,16.83
2022-12-11T02:01:43.066Z,16.50
2022-12-11T02:02:22.020Z,15.50
2022-12-11T02:02:53.638Z,16.50
2022-12-11T02:03:25.217Z,15.25
2022-12-11T02:03:57.211Z,16.75
2022-12-11T02:04:29.595Z,15.48
2022-12-11T02:05:06.957Z,18.85
2022-12-11T02:05:38.929Z,15.93
2022-12-11T02:06:31.238Z,16.98
2022-12-11T02:07:03.695Z,17.80
2022-12-11T02:07:46.448Z,16.63
2022-12-11T02:08:18.607Z,16.20
2022-12-11T02:08:50.227Z,18.00
2022-12-11T02:09:25.594Z,17.25
2022-12-11T02:09:57.245Z,16.83
2022-12-11T02:10:43.650Z,16.30
2022-12-11T02:11:23.874Z,16.38
2022-12-11T02:12:31.732Z,17.67
2022-12-11T02:13:26.483Z,15.27
2022-12-11T02:14:04.817Z,16.45
2022-12-11T02:14:45.104Z,18.02
2022-12-11T02:15:41.150Z,15.18
2022-12-11T02:16:25.653Z,17.60
2022-12-11T02:17:23.152Z,15.70
2022-12-11T02:18:20.187Z,13.45
2022-12-11T02:19:08.108Z,14.75
2022-12-11T02:19:46.055Z,16.00
2022-12-11T02:20:27.323Z,15.93
2022-12-11T02:21:39.398Z,17.15
2022-12-11T02:22:18.619Z,14.65
2022-12-11T02:23:17.011Z,16.75
2022-12-11T02:24:17.779Z,15.57
2022-12-11T02:25:11.122Z,16.17
2022-12-11T02:26:01.582Z,18.40
2022-12-11T02:26:55.759Z,15.35
2022-12-11T02:27:41.243Z,15.45
2022-12-11T02:28:24.180Z,14.82
2022-12-11T02:29:07.472Z,17.85
2022-12-11T02:30:08.759Z,19.00
2022-12-11T02:30:43.035Z,18.15
2022-12-11T02:31:18.820Z,18.25
2022-12-11T02:31:56.348Z,16.27
2022-12-11T02:32:36.007Z,18.25
2022-12-11T02:33:11.842Z,17.58
2022-12-11T02:34:08.323Z,19.88
2022-12-11T02:34:47.132Z,15.85
2022-12-11T02:35:34.167Z,17.25
2022-12-11T02:36:08.048Z,17.08
2022-12-11T02:36:47.979Z,19.58
2022-12-11T02:37:24.672Z,18.08
2022-12-11T02:38:04.619Z,17.17
2022-12-11T02:38:41.734Z,17.98
2022-12-11T02:39:15.957Z,18.67
2022-12-11T02:39:51.772Z,19.65
2022-12-11T02:40:27.588Z,18.63
2022-12-11T02:41:01.097Z,17.77
2022-12-11T02:41:33.834Z,17.52
2022-12-11T02:42:06.975Z,17.90
2022-12-11T02:42:42.510Z,17.60
2022-12-11T02:43:16.199Z,20.17
2022-12-11T02:43:50.548Z,18.88
2022-12-11T02:44:29.514Z,18.33
2022-12-11T02:45:03.119Z,16.83
2022-12-11T02:45:36.352Z,17.75
2022-12-11T02:46:08.762Z,19.38
2022-12-11T02:46:42.172Z,18.90
2022-12-11T02:47:16.607Z,19.13
2022-12-11T02:47:50.034Z,18.58
2022-12-11T02:48:24.308Z,18.33
2022-12-11T02:48:57.151Z,18.83
2022-12-11T02:49:30.255Z,17.83
2022-12-11T02:50:06.623Z,18.92
2022-12-11T02:50:44.394Z,17.92
2022-12-11T02:51:18.587Z,18.25
2022-12-11T02:51:51.782Z,17.42
2022-12-11T02:52:25.644Z,17.20
2022-12-11T02:52:59.770Z,17.75
2022-12-11T02:53:33.373Z,18.67
2022-12-11T02:54:09.058Z,17.30
2022-12-11T02:54:42.510Z,18.17
2022-12-11T02:55:16.139Z,20.60
2022-12-11T02:55:52.406Z,17.58
2022-12-11T02:56:30.765Z,17.38
2022-12-11T02:57:14.630Z,18.00
2022-12-11T02:57:51.414Z,17.73
2022-12-11T02:58:28.095Z,19.20
2022-12-11T02:59:05.874Z,18.98
2022-12-11T02:59:41.490Z,20.90
2022-12-11T03:00:13.305Z,18.05
2022-12-11T03:00:46.345Z,18.77
2022-12-11T03:01:18.174Z,18.08
2022-12-11T03:01:50.641Z,19.52
2022-12-11T03:02:22.370Z,18.92
2022-12-11T03:02:54.302Z,19.50
2022-12-11T03:03:27.357Z,18.75
2022-12-11T03:03:59.043Z,17.70
2022-12-11T03:04:31.196Z,20.05
2022-12-11T03:05:04.628Z,19.08
2022-12-11T03:05:36.208Z,20.05
2022-12-11T03:06:13.309Z,18.08
2022-12-11T03:06:51.410Z,17.63
2022-12-11T03:07:27.616Z,18.35
2022-12-11T03:07:59.203Z,19.08
2022-12-11T03:08:32.046Z,19.90
2022-12-11T03:09:05.202Z,20.33
2022-12-11T03:09:36.798Z,19.80
2022-12-11T03:10:11.196Z,18.08
2022-12-11T03:10:43.297Z,20.50
2022-12-11T03:11:14.875Z,19.58
2022-12-11T03:11:46.655Z,22.10
2022-12-11T03:12:28.011Z,20.67
2022-12-11T03:13:00.972Z,20.23
2022-12-11T03:13:32.639Z,19.02
2022-12-11T03:14:04.694Z,16.80
2022-12-11T03:14:37.591Z,20.10
2022-12-11T03:15:13.986Z,19.75
2022-12-11T03:16:07.655Z,20.42
2022-12-11T03:16:48.540Z,20.50
2022-12-11T03:17:23.693Z,20.58
2022-12-11T03:18:05.188Z,21.95
2022-12-11T03:18:46.697Z,21.90
2022-12-11T03:19:31.657Z,20.08
2022-12-11T03:20:27.864Z,21.90
2022-12-11T03:21:02.498Z,21.23
2022-12-11T03:21:45.739Z,20.00
2022-12-11T03:22:25.541Z,20.20
2022-12-11T03:23:14.465Z,21.95
2022-12-11T03:24:03.768Z,21.15
2022-12-11T03:24:49.548Z,21.08
2022-12-11T03:25:25.986Z,22.55
2022-12-11T03:26:01.942Z,21.70
2022-12-11T03:26:39.492Z,20.40
2022-12-11T03:27:26.590Z,18.85
2022-12-11T03:28:07.352Z,22.88
2022-12-11T03:28:50.994Z,20.08
2022-12-11T03:30:14.891Z,21.42
2022-12-11T03:30:49.775Z,21.75
2022-12-11T03:31:37.883Z,21.38
2022-12-11T03:32:13.398Z,21.88
2022-12-11T03:32:53.271Z,20.60
2022-12-11T03:33:36.407Z,20.10
2022-12-11T03:34:16.296Z,20.73
2022-12-11T03:35:04.062Z,21.48
2022-12-11T03:35:51.400Z,22.98
2022-12-11T03:36:30.266Z,21.95
2022-12-11T03:37:05.226Z,21.67
2022-12-11T03:37:40.421Z,21.67
2022-12-11T03:38:18.760Z,21.30
2022-12-11T03:38:54.519Z,22.45
2022-12-11T03:39:33.744Z,21.60
2022-12-11T03:40:12.164Z,21.27
2022-12-11T03:40:47.921Z,19.27
2022-12-11T03:41:22.115Z,21.27
2022-12-11T03:41:55.277Z,21.38
2022-12-11T03:42:27.117Z,19.67
2022-12-11T03:42:59.774Z,21.50
2022-12-11T03:43:32.386Z,21.73
2022-12-11T03:44:04.286Z,22.92
2022-12-11T03:44:37.075Z,20.63
2022-12-11T03:45:10.006Z,19.10
2022-12-11T03:45:42.826Z,21.80
2022-12-11T03:46:15.982Z,20.60
2022-12-11T03:46:50.469Z,21.88
2022-12-11T03:47:25.336Z,20.45
2022-12-11T03:47:59.363Z,21.40
2022-12-11T03:48:35.413Z,20.65
2022-12-11T03:49:15.371Z,19.10
2022-12-11T03:49:48.864Z,20.02
2022-12-11T03:50:22.620Z,22.25
2022-12-11T03:50:55.028Z,19.98
2022-12-11T03:51:28.938Z,21.80
2022-12-11T03:52:02.160Z,21.38
2022-12-11T03:52:34.440Z,23.75
2022-12-11T03:53:06.423Z,22.33
2022-12-11T03:53:39.347Z,21.00
2022-12-11T03:54:11.490Z,20.27
2022-12-11T03:54:47.563Z,20.58
2022-12-11T03:55:21.465Z,21.15
2022-12-11T03:55:54.263Z,23.75
2022-12-11T03:56:28.645Z,24.63
2022-12-11T03:57:01.466Z,21.60
2022-12-11T03:57:36.843Z,22.30
2022-12-11T03:58:08.491Z,23.48
2022-12-11T03:58:40.276Z,27.15
2022-12-11T03:59:12.111Z,22.77
2022-12-11T03:59:44.253Z,23.58
2022-12-11T04:00:18.587Z,24.00
2022-12-11T04:00:50.200Z,26.15
2022-12-11T04:01:21.933Z,23.73
2022-12-11T04:01:53.704Z,24.08
2022-12-11T04:02:25.401Z,23.63
2022-12-11T04:03:16.007Z,25.75
2022-12-11T04:03:47.655Z,21.77
2022-12-11T04:04:19.740Z,26.13
2022-12-11T04:04:51.398Z,21.00
2022-12-11T04:05:22.990Z,25.30
2022-12-11T04:05:56.016Z,24.35
2022-12-11T04:06:27.579Z,24.55
2022-12-11T04:06:59.114Z,25.48
2022-12-11T04:07:31.365Z,24.92
2022-12-11T04:08:03.095Z,24.65
2022-12-11T04:08:34.785Z,25.23
2022-12-11T04:09:06.549Z,24.60
2022-12-11T04:09:38.159Z,26.30
2022-12-11T04:10:10.304Z,25.25
2022-12-11T04:10:42.348Z,23.20
2022-12-11T04:11:32.413Z,26.15
2022-12-11T04:12:04.050Z,25.70
2022-12-11T04:12:35.625Z,26.02
2022-12-11T04:13:08.353Z,24.77
2022-12-11T04:13:41.430Z,25.70
2022-12-11T04:14:33.087Z,22.67
2022-12-11T04:15:04.934Z,25.10
2022-12-11T04:15:38.447Z,23.60
2022-12-11T04:16:10.250Z,25.42
2022-12-11T04:16:41.987Z,26.38
2022-12-11T04:17:33.571Z,27.00
2022-12-11T04:18:24.398Z,25.73
2022-12-11T04:19:14.203Z,25.30
2022-12-11T04:20:04.295Z,26.23
2022-12-11T04:20:54.178Z,23.25
2022-12-11T04:21:43.974Z,23.25
2022-12-11T04:22:35.786Z,25.63
2022-12-11T04:23:34.960Z,26.08
2022-12-11T04:24:16.456Z,23.15
2022-12-11T04:24:49.410Z,24.42
2022-12-11T04:25:20.955Z,25.95
2022-12-11T04:25:52.499Z,28.00
2022-12-11T04:26:24.145Z,24.63
2022-12-11T04:26:55.715Z,26.20
2022-12-11T04:27:46.203Z,26.38
2022-12-11T04:28:17.845Z,27.10
2022-12-11T04:28:51.171Z,25.85
2022-12-11T04:29:22.832Z,28.42
2022-12-11T04:29:54.373Z,26.30
2022-12-11T04:30:32.351Z,25.63
2022-12-11T04:31:06.612Z,28.35
2022-12-11T04:31:38.282Z,26.85
2022-12-11T04:32:09.848Z,26.00
2022-12-11T04:32:41.713Z,26.42
2022-12-11T04:33:13.280Z,26.85
2022-12-11T04:33:44.919Z,27.73
2022-12-11T04:34:16.954Z,26.75
2022-12-11T04:34:48.635Z,26.23
2022-12-11T04:35:20.930Z,27.38
2022-12-11T04:35:52.533Z,26.00
2022-12-11T04:36:24.140Z,26.77
2022-12-11T04:36:55.688Z,26.30
2022-12-11T04:37:27.894Z,26.27
2022-12-11T04:37:59.451Z,27.38
2022-12-11T04:38:30.999Z,25.92
2022-12-11T04:39:03.749Z,26.55
2022-12-11T04:39:35.399Z,23.83
2022-12-11T04:40:10.260Z,28.23
2022-12-11T04:40:41.891Z,27.58
2022-12-11T04:41:15.188Z,27.00
2022-12-11T04:41:46.750Z,26.23
2022-12-11T04:42:18.309Z,28.23
2022-12-11T04:42:49.975Z,26.50
2022-12-11T04:43:21.536Z,24.55
2022-12-11T04:43:53.174Z,25.77
2022-12-11T04:44:24.763Z,26.85
2022-12-11T04:44:56.328Z,27.50
2022-12-11T04:45:27.891Z,24.38
2022-12-11T04:46:17.561Z,23.75
2022-12-11T04:46:49.295Z,27.00
2022-12-11T04:47:20.895Z,24.52
2022-12-11T04:47:52.603Z,23.13
2022-12-11T04:48:24.182Z,23.95
2022-12-11T04:48:57.897Z,24.55
2022-12-11T04:49:29.626Z,28.02
2022-12-11T04:50:01.255Z,24.85
2022-12-11T04:50:32.861Z,24.02
2022-12-11T04:51:05.296Z,25.70
2022-12-11T04:51:36.851Z,25.30
2022-12-11T04:52:08.534Z,23.35
2022-12-11T04:52:40.666Z,23.83
2022-12-11T04:53:12.275Z,26.00
2022-12-11T04:53:43.848Z,26.23
2022-12-11T04:54:15.418Z,24.30
2022-12-11T04:54:47.206Z,23.92
2022-12-11T04:55:18.845Z,23.98
2022-12-11T04:55:50.554Z,23.60
2022-12-11T04:56:22.476Z,23.67
2022-12-11T04:56:54.050Z,26.85
2022-12-11T04:57:25.682Z,26.02
2022-12-11T04:57:57.247Z,21.20
2022-12-11T04:58:28.936Z,23.67
2022-12-11T04:59:01.127Z,23.13
2022-12-11T04:59:33.462Z,22.75
2022-12-11T05:00:10.312Z,24.05
2022-12-11T05:00:42.291Z,22.90
2022-12-11T05:01:19.246Z,25.55
2022-12-11T05:01:50.996Z,24.50
2022-12-11T05:02:22.652Z,23.90
2022-12-11T05:02:54.267Z,24.80
2022-12-11T05:03:25.906Z,25.10
2022-12-11T05:03:59.721Z,23.55
2022-12-11T05:04:33.152Z,26.15
2022-12-11T05:05:06.539Z,22.85
2022-12-11T05:05:38.198Z,23.20
2022-12-11T05:06:11.182Z,25.75
2022-12-11T05:06:42.812Z,23.85
2022-12-11T05:07:14.366Z,22.60
2022-12-11T05:07:46.060Z,22.50
2022-12-11T05:08:18.561Z,23.38
2022-12-11T05:08:50.331Z,22.42
2022-12-11T05:09:21.977Z,23.30
2022-12-11T05:09:53.562Z,23.77
2022-12-11T05:10:25.442Z,21.50
2022-12-11T05:11:03.554Z,22.33
2022-12-11T05:11:36.388Z,23.95
2022-12-11T05:12:07.960Z,23.65
2022-12-11T05:12:39.562Z,21.35
2022-12-11T05:13:11.127Z,21.02
2022-12-11T05:13:43.575Z,23.85
2022-12-11T05:14:15.150Z,20.92
2022-12-11T05:14:46.820Z,22.73
2022-12-11T05:15:18.448Z,21.33
2022-12-11T05:15:50.165Z,22.50
2022-12-11T05:16:21.881Z,22.10
2022-12-11T05:16:53.443Z,20.17
2022-12-11T05:17:25.034Z,21.52
2022-12-11T05:17:56.610Z,20.80
2022-12-11T05:18:28.168Z,20.13
2022-12-11T05:18:59.839Z,21.27
2022-12-11T05:19:31.451Z,20.30
2022-12-11T05:20:03.252Z,22.63
2022-12-11T05:20:34.858Z,20.63
2022-12-11T05:21:12.830Z,22.48
2022-12-11T05:21:44.560Z,19.83
2022-12-11T05:22:16.443Z,20.85
2022-12-11T05:22:48.060Z,20.77
2022-12-11T05:23:19.656Z,20.25
2022-12-11T05:23:51.213Z,22.73
2022-12-11T05:24:22.766Z,20.17
2022-12-11T05:24:54.318Z,19.83
2022-12-11T05:25:25.899Z,19.08
2022-12-11T05:26:00.631Z,18.98
2022-12-11T05:26:32.332Z,21.10
2022-12-11T05:27:03.972Z,20.77
2022-12-11T05:27:35.563Z,20.50
2022-12-11T05:28:07.115Z,18.83
2022-12-11T05:28:39.855Z,19.38
2022-12-11T05:29:11.418Z,22.58
2022-12-11T05:29:43.131Z,19.27
2022-12-11T05:30:14.694Z,21.88
2022-12-11T05:30:46.392Z,20.38
2022-12-11T05:31:20.168Z,19.95
2022-12-11T05:31:51.772Z,18.85
2022-12-11T05:32:23.377Z,20.52
2022-12-11T05:32:54.962Z,22.42
2022-12-11T05:33:28.082Z,19.38
2022-12-11T05:33:59.726Z,21.60
2022-12-11T05:34:31.337Z,21.10
2022-12-11T05:35:03.828Z,20.90
2022-12-11T05:35:35.401Z,20.13
2022-12-11T05:36:08.027Z,20.52
2022-12-11T05:36:40.240Z,20.50
2022-12-11T05:37:11.884Z,20.08
2022-12-11T05:37:43.508Z,22.15
2022-12-11T05:38:15.089Z,21.00
2022-12-11T05:38:47.011Z,19.85
2022-12-11T05:39:18.763Z,20.73
2022-12-11T05:39:50.355Z,19.27
2022-12-11T05:40:21.961Z,19.42
2022-12-11T05:41:05.954Z,20.20
2022-12-11T05:41:37.583Z,19.23
2022-12-11T05:42:09.129Z,22.17
2022-12-11T05:42:40.732Z,21.65
2022-12-11T05:43:12.320Z,21.67
2022-12-11T05:43:44.768Z,21.88
2022-12-11T05:44:16.315Z,22.10
2022-12-11T05:44:49.812Z,20.58
2022-12-11T05:45:21.400Z,22.17
2022-12-11T05:45:53.075Z,21.20
2022-12-11T05:46:29.972Z,22.27
2022-12-11T05:47:01.710Z,21.23
2022-12-11T05:47:33.314Z,20.42
2022-12-11T05:48:05.038Z,20.38
2022-12-11T05:48:37.151Z,20.35
2022-12-11T05:49:10.841Z,21.05
2022-12-11T05:49:43.466Z,20.10
2022-12-11T05:50:15.017Z,21.92
2022-12-11T05:50:56.839Z,21.80
2022-12-11T05:51:29.496Z,22.13
2022-12-11T05:52:01.093Z,22.33
2022-12-11T05:52:33.253Z,21.58
2022-12-11T05:53:05.419Z,23.77
2022-12-11T05:53:38.376Z,21.83
2022-12-11T05:54:10.658Z,21.92
2022-12-11T05:54:42.439Z,23.23
2022-12-11T05:55:14.089Z,19.27
2022-12-11T05:55:45.675Z,21.73
2022-12-11T05:56:24.407Z,20.23
2022-12-11T05:56:56.038Z,20.80
2022-12-11T05:57:27.682Z,22.48
2022-12-11T05:57:59.279Z,21.40
2022-12-11T05:58:31.033Z,21.02
2022-12-11T05:59:04.498Z,23.30
2022-12-11T05:59:36.039Z,20.67
2022-12-11T06:00:09.223Z,22.40
2022-12-11T06:00:43.862Z,21.50
2022-12-11T06:01:24.772Z,23.30
2022-12-11T06:01:56.454Z,21.35
2022-12-11T06:02:28.160Z,23.17
2022-12-11T06:03:00.000Z,22.92
2022-12-11T06:03:31.619Z,25.02
2022-12-11T06:04:05.433Z,21.92
2022-12-11T06:04:37.021Z,22.40
2022-12-11T06:05:08.859Z,20.58
2022-12-11T06:05:42.447Z,21.45
2022-12-11T06:06:14.666Z,21.77
2022-12-11T06:06:46.329Z,21.85
2022-12-11T06:07:17.929Z,22.48
2022-12-11T06:07:49.554Z,22.48
2022-12-11T06:08:21.183Z,20.48
2022-12-11T06:08:53.968Z,21.58
2022-12-11T06:09:25.528Z,21.90
2022-12-11T06:09:57.110Z,23.67
2022-12-11T06:10:28.657Z,22.70
2022-12-11T06:11:00.780Z,22.40
2022-12-11T06:11:34.054Z,23.58
2022-12-11T06:12:05.857Z,21.23
2022-12-11T06:12:37.441Z,21.05
2022-12-11T06:13:09.032Z,21.30
2022-12-11T06:13:40.846Z,22.08
2022-12-11T06:14:13.938Z,22.35
2022-12-11T06:14:45.943Z,21.98
2022-12-11T06:15:17.510Z,21.88
2022-12-11T06:15:49.515Z,20.45
2022-12-11T06:16:22.374Z,22.27
2022-12-11T06:16:54.042Z,21.15
2022-12-11T06:17:25.592Z,21.75
2022-12-11T06:17:57.221Z,24.00
2022-12-11T06:18:28.878Z,22.80
2022-12-11T06:19:00.524Z,23.60
2022-12-11T06:19:36.709Z,23.45
2022-12-11T06:20:09.093Z,22.83
2022-12-11T06:20:40.743Z,24.73
2022-12-11T06:21:16.241Z,25.67
2022-12-11T06:21:48.939Z,24.75
2022-12-11T06:22:20.520Z,26.98
2022-12-11T06:22:52.132Z,24.25
2022-12-11T06:23:24.164Z,22.90
2022-12-11T06:23:58.204Z,24.10
2022-12-11T06:24:29.787Z,23.88
2022-12-11T06:25:02.646Z,24.80
2022-12-11T06:25:34.635Z,24.27
2022-12-11T06:26:06.835Z,25.27
2022-12-11T06:26:38.479Z,23.27
2022-12-11T06:27:10.281Z,24.00
2022-12-11T06:27:41.864Z,24.10
2022-12-11T06:28:13.416Z,23.70
2022-12-11T06:28:45.809Z,24.80
2022-12-11T06:29:18.112Z,26.27
2022-12-11T06:29:49.696Z,23.00
2022-12-11T06:30:22.039Z,24.80
2022-12-11T06:31:10.337Z,24.90
2022-12-11T06:31:42.074Z,25.60
2022-12-11T06:32:13.701Z,23.92
2022-12-11T06:32:45.392Z,28.23
2022-12-11T06:33:16.970Z,23.98
2022-12-11T06:33:48.717Z,26.40
2022-12-11T06:34:20.257Z,25.02
2022-12-11T06:34:51.851Z,24.20
2022-12-11T06:35:23.677Z,24.23
2022-12-11T06:35:55.290Z,26.23
2022-12-11T06:36:26.837Z,24.98
2022-12-11T06:36:58.410Z,24.17
2022-12-11T06:37:29.964Z,24.38
2022-12-11T06:38:01.940Z,23.02
2022-12-11T06:38:33.643Z,22.60
2022-12-11T06:39:05.230Z,26.45
2022-12-11T06:39:36.882Z,24.83
2022-12-11T06:40:10.509Z,25.77
2022-12-11T06:40:42.119Z,23.60
2022-12-11T06:41:14.766Z,23.90
2022-12-11T06:41:46.407Z,25.38
2022-12-11T06:42:18.112Z,24.50
2022-12-11T06:42:49.790Z,24.17
2022-12-11T06:43:21.587Z,24.27
2022-12-11T06:43:53.337Z,25.40
2022-12-11T06:44:25.131Z,25.80
2022-12-11T06:44:59.733Z,31.98
2022-12-11T06:45:31.468Z,29.02
2022-12-11T06:46:05.185Z,26.77
2022-12-11T06:46:36.843Z,26.02
2022-12-11T06:47:08.518Z,25.05
2022-12-11T06:47:40.142Z,28.63
2022-12-11T06:48:11.683Z,24.27
2022-12-11T06:48:44.503Z,24.58
2022-12-11T06:49:16.134Z,24.02
2022-12-11T06:49:48.328Z,27.17
2022-12-11T06:50:19.879Z,25.13
2022-12-11T06:50:51.874Z,22.92
2022-12-11T06:51:23.650Z,23.65
2022-12-11T06:51:55.251Z,24.55
2022-12-11T06:52:30.182Z,24.38
2022-12-11T06:53:01.774Z,24.33
2022-12-11T06:53:33.501Z,23.55
2022-12-11T06:54:05.143Z,22.05
2022-12-11T06:54:36.744Z,20.58
2022-12-11T06:55:08.847Z,21.73
2022-12-11T06:55:41.742Z,21.08
2022-12-11T06:56:15.686Z,20.40
2022-12-11T06:56:47.387Z,21.50
2022-12-11T06:57:20.418Z,21.45
2022-12-11T06:57:51.958Z,22.30
2022-12-11T06:58:23.582Z,22.65
2022-12-11T06:58:57.090Z,22.60
2022-12-11T06:59:28.690Z,22.55
2022-12-11T07:00:00.267Z,22.20
2022-12-11T07:00:32.065Z,18.50
2022-12-11T07:01:05.302Z,18.73
2022-12-11T07:01:36.975Z,20.60
2022-12-11T07:02:14.362Z,19.40
2022-12-11T07:02:45.979Z,18.80
2022-12-11T07:03:17.601Z,19.98
2022-12-11T07:03:49.522Z,19.77
2022-12-11T07:04:24.693Z,19.52
2022-12-11T07:04:56.282Z,20.38
2022-12-11T07:05:28.196Z,18.58
2022-12-11T07:06:01.530Z,18.73
2022-12-11T07:06:33.139Z,19.42
2022-12-11T07:07:04.766Z,18.15
2022-12-11T07:07:36.376Z,17.95
2022-12-11T07:08:08.030Z,20.88
2022-12-11T07:08:40.142Z,19.30
2022-12-11T07:09:11.742Z,16.90
2022-12-11T07:09:43.489Z,20.77
2022-12-11T07:10:15.099Z,18.58
2022-12-11T07:10:46.683Z,17.48
2022-12-11T07:11:19.605Z,17.70
2022-12-11T07:11:51.929Z,15.98
2022-12-11T07:12:23.589Z,16.67
2022-12-11T07:12:55.255Z,18.90
2022-12-11T07:13:26.824Z,17.67
2022-12-11T07:14:01.558Z,16.63
2022-12-11T07:14:33.846Z,19.60
2022-12-11T07:15:06.090Z,16.17
2022-12-11T07:15:40.511Z,17.67
2022-12-11T07:16:14.060Z,17.75
2022-12-11T07:16:45.731Z,18.17
2022-12-11T07:17:17.326Z,16.77
2022-12-11T07:17:48.917Z,16.13
2022-12-11T07:18:20.563Z,18.80
2022-12-11T07:18:52.575Z,16.00
2022-12-11T07:19:24.775Z,17.13
2022-12-11T07:19:56.398Z,16.27
2022-12-11T07:20:28.073Z,18.70
2022-12-11T07:21:02.541Z,16.88